Terminal Aerodrome Forecast
Issued by NWS Albuquerque, NM

Home | Current Version | Previous Version | Text Only | Print | Product List | Glossary On
Versions: 1 2 3 4 5 6 7 8 9 10 11 12 13 14 15 16 17 18 19
000
FTUS45 KABQ 311127
TAFABQ
TAF
KABQ 311127Z 3112/0112 03006KT P6SM SCT050 BKN100
     FM311700 17007KT P6SM SCT060 SCT100
     FM312200 13006KT P6SM VCTS BKN060CB
     FM010200 15010KT P6SM SCT060 BKN100
     FM010700 VRB06KT P6SM FEW035 BKN120=

USA.gov is the U.S. government's official web portal to all federal, state and local government web resources and services.